createdAt,value
2023-08-20T00:04:24.031Z,90.5
2023-08-20T00:09:23.726Z,90.5
2023-08-20T00:14:23.743Z,90.5
2023-08-20T00:34:23.716Z,90.6
2023-08-20T00:54:23.753Z,90.6
2023-08-20T00:59:23.732Z,90.5
2023-08-20T01:09:23.753Z,90.6
2023-08-20T01:14:23.740Z,90.6
2023-08-20T01:24:23.776Z,90.7
2023-08-20T01:34:23.748Z,90.9
2023-08-20T01:49:23.773Z,90.9
2023-08-20T02:09:23.758Z,90.9
2023-08-20T02:19:23.776Z,90.8
2023-08-20T02:24:23.773Z,91
2023-08-20T02:34:23.790Z,90.5
2023-08-20T02:39:23.783Z,91
2023-08-20T02:44:23.790Z,91.1
2023-08-20T02:49:23.787Z,91
2023-08-20T02:59:23.817Z,90.9
2023-08-20T03:04:23.798Z,91
2023-08-20T03:34:23.801Z,90.9
2023-08-20T03:44:23.817Z,90.9
2023-08-20T03:49:23.784Z,91
2023-08-20T03:59:23.813Z,91
2023-08-20T04:04:23.860Z,91.1
2023-08-20T04:09:23.819Z,91
2023-08-20T04:19:23.847Z,91
2023-08-20T04:24:23.867Z,91
2023-08-20T04:29:23.837Z,90.9
2023-08-20T04:49:23.823Z,90.6
2023-08-20T04:54:23.862Z,90.8
2023-08-20T05:04:24.061Z,90.7
2023-08-20T05:19:23.813Z,90.8
2023-08-20T05:24:23.824Z,90.7
2023-08-20T05:29:23.826Z,90.6
2023-08-20T05:34:23.893Z,90.8
2023-08-20T05:44:23.852Z,90.9
2023-08-20T06:19:23.837Z,91.2
2023-08-20T06:24:23.899Z,91.1
2023-08-20T06:39:23.893Z,90.8
2023-08-20T06:49:23.853Z,91
2023-08-20T06:54:23.890Z,90.8
2023-08-20T07:04:23.880Z,90.8
2023-08-20T07:24:23.917Z,90.9
2023-08-20T07:34:23.880Z,90.9
2023-08-20T07:39:23.885Z,90.8
2023-08-20T07:44:23.929Z,90.8
2023-08-20T07:49:23.913Z,90.7
2023-08-20T07:59:23.909Z,90.8
2023-08-20T08:04:23.903Z,90.7
2023-08-20T08:14:23.907Z,90.8
2023-08-20T08:19:23.902Z,90.8
2023-08-20T08:24:23.911Z,90.9
2023-08-20T08:44:23.902Z,90.8
2023-08-20T08:49:23.927Z,90.7
2023-08-20T08:54:23.904Z,90.7
2023-08-20T09:04:23.886Z,90.7
2023-08-20T09:09:23.930Z,90.7
2023-08-20T09:14:23.948Z,90.6
2023-08-20T09:24:23.892Z,90.7
2023-08-20T09:29:23.910Z,90.8
2023-08-20T09:39:23.908Z,90.6
2023-08-20T09:44:23.938Z,90.7
2023-08-20T10:04:23.979Z,90.6
2023-08-20T10:14:23.915Z,90.6
2023-08-20T10:34:23.963Z,90.5
2023-08-20T10:44:23.989Z,90.4
2023-08-20T10:49:24.026Z,90.5
2023-08-20T10:59:23.950Z,90.6
2023-08-20T11:19:24.168Z,90.4
2023-08-20T11:24:24.013Z,90.3
2023-08-20T11:34:24.011Z,90.4
2023-08-20T11:44:24.009Z,90.4
2023-08-20T11:49:24.017Z,90.4
2023-08-20T11:59:23.979Z,90.3
2023-08-20T12:04:24.014Z,90.4
2023-08-20T12:39:24.036Z,90.3
2023-08-20T12:44:24.012Z,90.5
2023-08-20T12:54:24.050Z,90.5
2023-08-20T13:04:24.024Z,90.5
2023-08-20T13:09:24.054Z,90
2023-08-20T13:14:24.060Z,90.3
2023-08-20T13:24:24.060Z,90.1
2023-08-20T13:34:24.060Z,90.6
2023-08-20T13:39:24.058Z,90.1
2023-08-20T13:54:24.060Z,91.2
2023-08-20T14:09:24.069Z,89.9
2023-08-20T14:19:24.088Z,90.2
2023-08-20T14:24:24.080Z,90.3
2023-08-20T14:34:24.080Z,90.4
2023-08-20T14:39:24.087Z,90.3
2023-08-20T14:49:24.070Z,90.5
2023-08-20T15:14:24.081Z,90.4
2023-08-20T15:24:24.104Z,90.1
2023-08-20T15:34:24.073Z,90.3
2023-08-20T15:39:24.096Z,90.1
2023-08-20T15:49:24.075Z,90.2
2023-08-20T15:54:24.066Z,90.1
2023-08-20T15:59:24.093Z,90.1
2023-08-20T16:09:37.300Z,90.2
2023-08-20T16:14:24.082Z,90
2023-08-20T16:34:24.111Z,90.2
2023-08-20T16:39:24.121Z,90.2
2023-08-20T16:49:24.105Z,90.3
2023-08-20T16:59:24.098Z,90.3
2023-08-20T17:04:24.108Z,90.4
2023-08-20T17:14:24.123Z,90.3
2023-08-20T17:24:24.106Z,90.3
2023-08-20T17:29:24.112Z,90.3
2023-08-20T17:49:24.135Z,90.3
2023-08-20T17:59:24.132Z,90.2
2023-08-20T18:14:24.142Z,90.3
2023-08-20T18:24:24.158Z,90.4
2023-08-20T18:49:24.302Z,90.3
2023-08-20T19:09:24.148Z,90.3
2023-08-20T19:24:24.178Z,90.2
2023-08-20T19:34:24.177Z,90.3
2023-08-20T19:44:24.195Z,90.2
2023-08-20T19:54:24.164Z,90.3
2023-08-20T19:59:24.204Z,90.4
2023-08-20T20:04:24.275Z,90.4
2023-08-20T20:29:24.204Z,90.4
2023-08-20T20:34:24.235Z,90.4
2023-08-20T20:44:24.220Z,90.3
2023-08-20T20:49:24.250Z,90.3
2023-08-20T20:59:24.274Z,90.4
2023-08-20T21:04:24.291Z,90.3
2023-08-20T21:09:24.263Z,90.3
2023-08-20T21:19:24.234Z,90.2
2023-08-20T21:44:24.231Z,90.7
2023-08-20T21:49:24.219Z,90.8
2023-08-20T21:54:24.241Z,90.7
2023-08-20T22:04:24.234Z,90.7
2023-08-20T22:19:24.244Z,90.7
2023-08-20T22:29:24.243Z,90.6
2023-08-20T22:34:24.236Z,90.5
2023-08-20T23:04:24.332Z,90.4
2023-08-20T23:09:24.269Z,90.5
2023-08-20T23:14:24.268Z,90.5
2023-08-20T23:19:24.298Z,90.5
2023-08-20T23:29:24.281Z,90.6
2023-08-20T23:34:24.297Z,90.5
2023-08-20T23:39:24.301Z,90.4
2023-08-20T23:49:24.291Z,90.4
2023-08-20T23:59:24.293Z,90.4
